createdAt,value
2023-05-10T00:01:28.262Z,6.35
2023-05-10T00:03:55.001Z,7.57
2023-05-10T00:06:21.938Z,8.73
2023-05-10T00:08:48.618Z,7.13
2023-05-10T00:11:15.334Z,7.20
2023-05-10T00:13:42.034Z,6.93
2023-05-10T00:16:08.802Z,6.97
2023-05-10T00:18:35.791Z,8.07
2023-05-10T00:21:02.402Z,7.18
2023-05-10T00:23:29.097Z,6.80
2023-05-10T00:25:55.767Z,7.30
2023-05-10T00:28:22.485Z,7.80
2023-05-10T00:30:49.197Z,7.70
2023-05-10T00:33:15.878Z,6.93
2023-05-10T00:35:42.531Z,7.35
2023-05-10T00:38:09.474Z,7.63
2023-05-10T00:40:37.975Z,7.82
2023-05-10T00:43:04.754Z,7.13
2023-05-10T00:45:32.211Z,8.75
2023-05-10T00:48:00.871Z,7.95
2023-05-10T00:50:27.812Z,7.13
2023-05-10T00:52:54.555Z,9.20
2023-05-10T00:55:21.796Z,8.73
2023-05-10T00:57:48.907Z,8.52
2023-05-10T01:00:19.364Z,7.15
2023-05-10T01:02:47.427Z,9.65
2023-05-10T01:05:14.622Z,9.10
2023-05-10T01:07:42.054Z,8.10
2023-05-10T01:10:10.054Z,9.45
2023-05-10T01:12:41.132Z,7.80
2023-05-10T01:15:09.662Z,7.78
2023-05-10T01:17:39.539Z,8.75
2023-05-10T01:20:09.238Z,7.50
2023-05-10T01:22:37.913Z,7.65
2023-05-10T01:25:16.877Z,8.57
2023-05-10T01:28:01.672Z,6.88
2023-05-10T01:31:08.260Z,6.03
2023-05-10T01:33:41.648Z,6.65
2023-05-10T01:36:48.238Z,7.18
2023-05-10T01:39:26.705Z,7.30
2023-05-10T01:42:24.152Z,6.03
2023-05-10T01:44:58.963Z,5.85
2023-05-10T01:47:36.630Z,5.50
2023-05-10T01:50:05.852Z,8.48
2023-05-10T01:52:37.634Z,5.20
2023-05-10T01:55:07.622Z,5.10
2023-05-10T01:57:37.974Z,4.53
2023-05-10T02:00:06.271Z,4.97
2023-05-10T02:02:40.067Z,5.93
2023-05-10T02:05:07.852Z,6.50
2023-05-10T02:07:37.434Z,5.18
2023-05-10T02:10:06.815Z,5.88
2023-05-10T02:12:37.540Z,7.78
2023-05-10T02:15:06.699Z,7.17
2023-05-10T02:17:38.098Z,6.95
2023-05-10T02:20:07.283Z,5.65
2023-05-10T02:22:34.897Z,5.15
2023-05-10T02:25:04.170Z,3.72
2023-05-10T02:27:32.150Z,3.47
2023-05-10T02:29:59.489Z,3.47
2023-05-10T02:32:28.734Z,3.35
2023-05-10T02:34:56.808Z,2.93
2023-05-10T02:37:24.995Z,2.83
2023-05-10T02:39:53.072Z,5.00
2023-05-10T02:42:23.628Z,2.83
2023-05-10T02:44:53.762Z,2.92
2023-05-10T02:47:20.847Z,3.08
2023-05-10T02:49:47.937Z,2.40
2023-05-10T02:52:22.067Z,2.72
2023-05-10T02:54:53.173Z,2.87
2023-05-10T02:57:27.434Z,3.80
2023-05-10T02:59:54.346Z,2.80
2023-05-10T03:02:21.938Z,1.85
2023-05-10T03:04:48.705Z,1.90
2023-05-10T03:07:15.996Z,1.67
2023-05-10T03:09:43.138Z,2.08
2023-05-10T03:12:19.301Z,1.40
2023-05-10T03:15:01.356Z,1.47
2023-05-10T03:17:53.666Z,2.47
2023-05-10T03:20:26.610Z,1.73
2023-05-10T03:23:01.321Z,1.10
2023-05-10T03:25:29.505Z,5.43
2023-05-10T03:27:58.238Z,0.75
2023-05-10T03:30:25.929Z,0.50
2023-05-10T03:32:52.736Z,0.10
2023-05-10T03:35:19.434Z,0.10
2023-05-10T03:37:46.302Z,0.10
2023-05-10T03:40:13.131Z,0.10
2023-05-10T03:42:39.819Z,0.03
2023-05-10T03:45:07.355Z,0.20
2023-05-10T03:47:34.065Z,0.10
2023-05-10T03:50:00.613Z,0.50
2023-05-10T03:52:27.350Z,1.80
2023-05-10T03:54:54.057Z,0.08
2023-05-10T03:57:20.797Z,0.10
2023-05-10T03:59:47.469Z,0.10
2023-05-10T04:02:14.194Z,4.22
2023-05-10T04:04:40.914Z,0.00
2023-05-10T04:07:07.582Z,0.10
2023-05-10T04:09:34.286Z,0.40
2023-05-10T04:12:03.238Z,0.05
2023-05-10T04:14:29.965Z,0.08
2023-05-10T04:16:56.641Z,0.00
2023-05-10T04:19:23.512Z,0.10
2023-05-10T04:21:50.207Z,0.03
2023-05-10T04:24:16.905Z,0.00
2023-05-10T04:26:43.562Z,0.10
2023-05-10T04:29:10.260Z,0.00
2023-05-10T04:31:37.283Z,0.00
2023-05-10T04:34:04.164Z,0.10
2023-05-10T04:36:30.985Z,0.10
2023-05-10T04:38:57.642Z,0.00
2023-05-10T04:41:24.347Z,0.10
2023-05-10T04:43:51.130Z,0.00
2023-05-10T04:46:17.947Z,0.05
2023-05-10T04:48:44.597Z,0.00
2023-05-10T04:51:11.293Z,0.00
2023-05-10T04:53:38.081Z,0.00
2023-05-10T04:56:05.401Z,0.00
2023-05-10T04:58:32.115Z,0.10
2023-05-10T05:01:05.485Z,0.10
2023-05-10T05:03:32.810Z,0.00
2023-05-10T05:05:59.570Z,0.10
2023-05-10T05:08:26.417Z,0.10
2023-05-10T05:10:53.205Z,0.00
2023-05-10T05:13:20.237Z,0.10
2023-05-10T05:15:46.949Z,0.30
2023-05-10T05:18:13.657Z,0.00
2023-05-10T05:20:40.796Z,0.10
2023-05-10T05:23:07.463Z,0.03
2023-05-10T05:25:34.221Z,0.20
2023-05-10T05:28:00.716Z,0.10
2023-05-10T05:30:27.484Z,0.20
2023-05-10T05:32:54.170Z,0.40
2023-05-10T05:35:20.973Z,0.20
2023-05-10T05:37:47.620Z,0.10
2023-05-10T05:40:15.156Z,0.10
2023-05-10T05:42:42.438Z,0.10
2023-05-10T05:45:10.004Z,0.20
2023-05-10T05:47:37.204Z,0.50
2023-05-10T05:50:04.169Z,0.50
2023-05-10T05:52:31.592Z,0.30
2023-05-10T05:54:58.332Z,0.30
2023-05-10T05:57:25.067Z,0.80
2023-05-10T05:59:51.736Z,1.35
2023-05-10T06:02:18.509Z,0.35
2023-05-10T06:04:45.238Z,0.50
2023-05-10T06:07:12.095Z,0.35
2023-05-10T06:09:38.859Z,0.50
2023-05-10T06:12:06.078Z,0.50
2023-05-10T06:14:32.788Z,0.60
2023-05-10T06:17:00.758Z,0.60
2023-05-10T06:19:28.275Z,0.60
2023-05-10T06:21:54.948Z,1.30
2023-05-10T06:24:22.174Z,1.55
2023-05-10T06:26:50.885Z,0.63
2023-05-10T06:29:17.691Z,0.75
2023-05-10T06:31:44.402Z,0.80
2023-05-10T06:34:12.597Z,0.77
2023-05-10T06:36:39.408Z,0.68
2023-05-10T06:39:06.614Z,0.70
2023-05-10T06:41:33.279Z,0.70
2023-05-10T06:43:59.982Z,0.80
2023-05-10T06:46:26.803Z,0.60
2023-05-10T06:48:53.628Z,0.88
2023-05-10T06:51:22.118Z,1.40
2023-05-10T06:53:48.803Z,1.00
2023-05-10T06:56:15.506Z,1.10
2023-05-10T06:58:42.322Z,1.15
2023-05-10T07:01:09.185Z,1.03
2023-05-10T07:03:36.252Z,1.20
2023-05-10T07:06:04.862Z,1.07
2023-05-10T07:08:32.802Z,1.10
2023-05-10T07:11:02.495Z,1.08
2023-05-10T07:13:29.112Z,1.67
2023-05-10T07:15:55.730Z,1.60
2023-05-10T07:18:22.424Z,1.20
2023-05-10T07:20:49.173Z,1.20
2023-05-10T07:23:16.092Z,1.10
2023-05-10T07:25:42.881Z,1.10
2023-05-10T07:28:09.590Z,1.25
2023-05-10T07:30:37.011Z,1.45
2023-05-10T07:33:03.744Z,1.60
2023-05-10T07:35:30.460Z,1.37
2023-05-10T07:37:57.167Z,1.50
2023-05-10T07:40:23.931Z,1.95
2023-05-10T07:42:50.587Z,1.25
2023-05-10T07:45:17.584Z,1.33
2023-05-10T07:47:44.556Z,1.30
2023-05-10T07:50:11.461Z,1.20
2023-05-10T07:52:38.193Z,1.27
2023-05-10T07:55:05.271Z,2.10
2023-05-10T07:57:31.976Z,1.17
2023-05-10T07:59:58.534Z,1.30
2023-05-10T08:02:25.243Z,1.83
2023-05-10T08:04:52.492Z,1.33
2023-05-10T08:07:19.154Z,1.92
2023-05-10T08:09:45.783Z,1.48
2023-05-10T08:12:12.489Z,1.40
2023-05-10T08:14:39.126Z,2.83
2023-05-10T08:17:06.757Z,1.90
2023-05-10T08:19:33.504Z,1.95
2023-05-10T08:22:00.207Z,1.60
2023-05-10T08:24:26.899Z,1.40
2023-05-10T08:26:53.691Z,1.50
2023-05-10T08:29:20.418Z,1.50
2023-05-10T08:31:47.285Z,2.05
2023-05-10T08:34:14.034Z,2.70
2023-05-10T08:36:40.836Z,1.63
2023-05-10T08:39:13.528Z,1.70
2023-05-10T08:41:48.988Z,1.73
2023-05-10T08:44:19.227Z,2.17
2023-05-10T08:46:47.754Z,1.92
2023-05-10T08:49:19.608Z,2.17
2023-05-10T08:51:51.948Z,2.85
2023-05-10T08:54:18.829Z,2.43
2023-05-10T08:56:47.328Z,3.08
2023-05-10T08:59:16.120Z,2.05
2023-05-10T09:01:45.655Z,1.80
2023-05-10T09:04:13.244Z,2.70
2023-05-10T09:06:40.358Z,1.75
2023-05-10T09:09:07.675Z,2.40
2023-05-10T09:11:34.838Z,1.48
2023-05-10T09:14:02.475Z,1.58
2023-05-10T09:16:29.443Z,2.08
2023-05-10T09:18:56.257Z,1.55
2023-05-10T09:21:23.021Z,1.67
2023-05-10T09:23:51.014Z,2.25
2023-05-10T09:26:18.450Z,1.40
2023-05-10T09:28:54.671Z,1.75
2023-05-10T09:31:21.618Z,0.80
2023-05-10T09:33:49.794Z,1.10
2023-05-10T09:36:16.930Z,1.73
2023-05-10T09:38:53.514Z,1.80
2023-05-10T09:41:23.017Z,2.30
2023-05-10T09:43:56.437Z,2.23
2023-05-10T09:46:23.821Z,1.40
2023-05-10T09:48:50.555Z,3.73
2023-05-10T09:51:24.961Z,1.33
2023-05-10T09:54:13.869Z,1.33
2023-05-10T09:56:41.698Z,1.30
2023-05-10T09:59:11.918Z,1.50
2023-05-10T10:01:39.918Z,1.73
2023-05-10T10:04:08.597Z,1.90
2023-05-10T10:06:38.355Z,1.77
2023-05-10T10:09:05.946Z,1.48
2023-05-10T10:11:33.705Z,1.80
2023-05-10T10:14:00.622Z,1.13
2023-05-10T10:16:30.187Z,0.90
2023-05-10T10:18:57.811Z,1.20
2023-05-10T10:21:25.072Z,2.08
2023-05-10T10:23:53.957Z,1.17
2023-05-10T10:26:22.312Z,0.80
2023-05-10T10:28:53.328Z,1.27
2023-05-10T10:31:37.584Z,1.35
2023-05-10T10:34:09.481Z,1.08
2023-05-10T10:36:51.638Z,1.52
2023-05-10T10:39:19.694Z,1.45
2023-05-10T10:41:56.946Z,1.42
2023-05-10T10:44:25.247Z,1.20
2023-05-10T10:47:13.119Z,1.52
2023-05-10T10:49:41.036Z,1.60
2023-05-10T10:52:33.579Z,2.30
2023-05-10T10:55:02.805Z,1.40
2023-05-10T10:57:33.233Z,1.52
2023-05-10T11:00:21.274Z,2.60
2023-05-10T11:02:50.272Z,1.20
2023-05-10T11:05:37.947Z,1.50
2023-05-10T11:08:09.861Z,2.47
2023-05-10T11:10:36.930Z,2.10
2023-05-10T11:13:06.533Z,1.30
2023-05-10T11:15:36.241Z,1.40
2023-05-10T11:18:27.325Z,1.83
2023-05-10T11:20:57.385Z,2.03
2023-05-10T11:23:24.430Z,2.10
2023-05-10T11:25:51.229Z,2.92
2023-05-10T11:28:20.822Z,1.40
2023-05-10T11:30:48.286Z,1.65
2023-05-10T11:33:17.947Z,1.38
2023-05-10T11:35:44.815Z,1.30
2023-05-10T11:38:12.775Z,2.20
2023-05-10T11:40:40.316Z,1.80
2023-05-10T11:43:11.630Z,2.03
2023-05-10T11:45:38.408Z,1.30
2023-05-10T11:48:05.756Z,1.30
2023-05-10T11:50:33.533Z,2.13
2023-05-10T11:53:00.218Z,1.15
2023-05-10T11:55:26.904Z,0.90
2023-05-10T11:57:55.470Z,1.15
2023-05-10T12:00:22.548Z,2.40
2023-05-10T12:02:49.694Z,0.85
2023-05-10T12:05:17.041Z,1.17
2023-05-10T12:07:44.015Z,1.98
2023-05-10T12:10:15.767Z,1.05
2023-05-10T12:12:45.050Z,0.80
2023-05-10T12:15:18.991Z,0.77
2023-05-10T12:17:47.080Z,0.90
2023-05-10T12:20:22.915Z,1.15
2023-05-10T12:22:53.940Z,0.90
2023-05-10T12:25:22.969Z,1.20
2023-05-10T12:27:54.617Z,2.50
2023-05-10T12:30:24.166Z,1.23
2023-05-10T12:32:51.328Z,1.13
2023-05-10T12:35:18.410Z,1.23
2023-05-10T12:37:45.114Z,1.73
2023-05-10T12:40:12.788Z,1.20
2023-05-10T12:42:40.955Z,1.42
2023-05-10T12:45:09.313Z,1.17
2023-05-10T12:47:36.170Z,1.80
2023-05-10T12:50:03.841Z,1.80
2023-05-10T12:52:31.329Z,1.58
2023-05-10T12:54:57.980Z,1.90
2023-05-10T12:57:24.684Z,1.50
2023-05-10T12:59:51.631Z,1.20
2023-05-10T13:02:19.117Z,1.30
2023-05-10T13:04:48.870Z,1.10
2023-05-10T13:07:17.037Z,1.02
2023-05-10T13:09:44.304Z,1.30
2023-05-10T13:12:11.111Z,1.30
2023-05-10T13:14:37.922Z,1.45
2023-05-10T13:17:04.980Z,1.38
2023-05-10T13:19:31.688Z,2.80
2023-05-10T13:21:58.986Z,1.17
2023-05-10T13:24:25.770Z,2.15
2023-05-10T13:26:52.607Z,1.70
2023-05-10T13:29:20.074Z,1.98
2023-05-10T13:31:46.997Z,0.70
2023-05-10T13:34:13.728Z,1.00
2023-05-10T13:36:40.446Z,1.00
2023-05-10T13:39:07.289Z,1.05
2023-05-10T13:41:34.289Z,0.90
2023-05-10T13:44:01.005Z,0.90
2023-05-10T13:46:27.704Z,0.77
2023-05-10T13:48:54.492Z,1.45
2023-05-10T13:51:21.322Z,1.05
2023-05-10T13:53:48.161Z,1.02
2023-05-10T13:56:15.170Z,1.10
2023-05-10T13:58:42.238Z,1.50
2023-05-10T14:01:09.174Z,1.27
2023-05-10T14:03:36.525Z,1.20
2023-05-10T14:06:03.416Z,1.65
2023-05-10T14:08:30.134Z,1.65
2023-05-10T14:10:57.885Z,1.23
2023-05-10T14:13:26.115Z,2.00
2023-05-10T14:15:54.778Z,1.48
2023-05-10T14:18:21.865Z,0.90
2023-05-10T14:20:48.569Z,1.10
2023-05-10T14:23:15.216Z,1.20
2023-05-10T14:25:42.136Z,1.13
2023-05-10T14:28:08.982Z,1.20
2023-05-10T14:30:35.758Z,2.13
2023-05-10T14:33:03.487Z,1.38
2023-05-10T14:35:31.973Z,1.45
2023-05-10T14:37:59.462Z,1.42
2023-05-10T14:40:26.923Z,1.20
2023-05-10T14:42:53.981Z,1.30
2023-05-10T14:45:21.952Z,1.87
2023-05-10T14:47:48.899Z,0.90
2023-05-10T14:50:24.999Z,1.50
2023-05-10T14:53:02.321Z,1.20
2023-05-10T14:55:29.011Z,1.20
2023-05-10T14:57:55.708Z,0.73
2023-05-10T15:00:22.675Z,0.90
2023-05-10T15:02:49.944Z,1.10
2023-05-10T15:05:17.598Z,1.10
2023-05-10T15:07:44.944Z,0.70
2023-05-10T15:10:12.375Z,0.70
2023-05-10T15:12:39.436Z,0.70
2023-05-10T15:15:07.226Z,0.80
2023-05-10T15:17:34.651Z,0.77
2023-05-10T15:20:04.034Z,0.80
2023-05-10T15:22:34.200Z,0.80
2023-05-10T15:25:01.166Z,1.20
2023-05-10T15:27:27.934Z,0.80
2023-05-10T15:29:54.680Z,2.33
2023-05-10T15:32:21.365Z,1.23
2023-05-10T15:34:48.105Z,1.00
2023-05-10T15:37:14.758Z,1.20
2023-05-10T15:39:41.466Z,0.70
2023-05-10T15:42:08.194Z,0.63
2023-05-10T15:44:36.009Z,1.30
2023-05-10T15:47:03.712Z,0.90
2023-05-10T15:49:30.526Z,1.15
2023-05-10T15:51:57.268Z,1.00
2023-05-10T15:54:24.016Z,1.50
2023-05-10T15:56:50.678Z,1.40
2023-05-10T15:59:17.340Z,1.63
2023-05-10T16:01:44.125Z,1.30
2023-05-10T16:04:10.792Z,1.70
2023-05-10T16:06:37.913Z,2.73
2023-05-10T16:09:04.735Z,1.00
2023-05-10T16:11:31.475Z,1.20
2023-05-10T16:13:58.267Z,0.90
2023-05-10T16:16:25.063Z,1.10
2023-05-10T16:18:52.594Z,2.47
2023-05-10T16:21:20.058Z,2.22
2023-05-10T16:23:46.958Z,0.90
2023-05-10T16:26:13.666Z,1.00
2023-05-10T16:28:41.315Z,1.00
2023-05-10T16:31:08.210Z,1.30
2023-05-10T16:33:35.157Z,0.80
2023-05-10T16:36:01.821Z,0.82
2023-05-10T16:38:28.441Z,1.05
2023-05-10T16:40:57.214Z,4.32
2023-05-10T16:43:25.880Z,2.03
2023-05-10T16:45:52.900Z,1.00
2023-05-10T16:48:19.639Z,2.60
2023-05-10T16:50:46.566Z,1.25
2023-05-10T16:53:13.303Z,1.40
2023-05-10T16:55:40.147Z,1.67
2023-05-10T16:58:06.806Z,1.30
2023-05-10T17:00:33.568Z,1.33
2023-05-10T17:03:00.421Z,1.75
2023-05-10T17:05:27.263Z,1.20
2023-05-10T17:07:54.571Z,1.23
2023-05-10T17:10:21.748Z,1.87
2023-05-10T17:12:49.271Z,2.50
2023-05-10T17:15:17.368Z,1.98
2023-05-10T17:17:44.607Z,1.27
2023-05-10T17:20:11.555Z,1.52
2023-05-10T17:22:38.220Z,0.95
2023-05-10T17:25:05.329Z,1.13
2023-05-10T17:27:32.042Z,4.35
2023-05-10T17:29:59.305Z,2.10
2023-05-10T17:32:26.378Z,1.87
2023-05-10T17:34:53.194Z,2.17
2023-05-10T17:37:20.070Z,2.50
2023-05-10T17:39:46.856Z,2.67
2023-05-10T17:42:14.847Z,1.90
2023-05-10T17:44:41.552Z,1.30
2023-05-10T17:47:08.106Z,2.40
2023-05-10T17:49:34.825Z,1.60
2023-05-10T17:52:01.702Z,1.83
2023-05-10T17:54:28.427Z,1.75
2023-05-10T17:56:55.162Z,1.95
2023-05-10T17:59:21.816Z,2.47
2023-05-10T18:01:48.565Z,2.20
2023-05-10T18:04:15.351Z,2.90
2023-05-10T18:06:42.112Z,2.40
2023-05-10T18:09:09.552Z,1.65
2023-05-10T18:11:36.780Z,2.65
2023-05-10T18:14:03.516Z,1.93
2023-05-10T18:16:30.207Z,2.20
2023-05-10T18:18:57.952Z,2.08
2023-05-10T18:21:24.752Z,1.87
2023-05-10T18:23:51.573Z,4.13
2023-05-10T18:26:18.451Z,2.90
2023-05-10T18:28:45.170Z,1.63
2023-05-10T18:31:12.473Z,4.50
2023-05-10T18:33:39.291Z,3.80
2023-05-10T18:36:06.072Z,2.47
2023-05-10T18:38:33.006Z,3.72
2023-05-10T18:40:59.744Z,4.93
2023-05-10T18:43:26.395Z,3.60
2023-05-10T18:45:53.185Z,1.38
2023-05-10T18:48:19.868Z,1.55
2023-05-10T18:50:46.553Z,2.80
2023-05-10T18:53:13.270Z,3.55
2023-05-10T18:55:40.051Z,2.88
2023-05-10T18:58:06.724Z,2.50
2023-05-10T19:00:33.396Z,2.50
2023-05-10T19:03:00.195Z,2.75
2023-05-10T19:05:29.998Z,1.50
2023-05-10T19:07:56.895Z,1.63
2023-05-10T19:10:23.644Z,1.63
2023-05-10T19:12:50.682Z,2.53
2023-05-10T19:15:19.274Z,1.90
2023-05-10T19:17:47.840Z,1.60
2023-05-10T19:20:15.432Z,1.90
2023-05-10T19:22:58.084Z,1.85
2023-05-10T19:25:29.328Z,2.00
2023-05-10T19:27:58.219Z,1.70
2023-05-10T19:30:25.485Z,3.90
2023-05-10T19:32:52.296Z,2.95
2023-05-10T19:35:19.293Z,3.50
2023-05-10T19:37:47.232Z,5.43
2023-05-10T19:40:15.897Z,3.05
2023-05-10T19:42:42.712Z,5.15
2023-05-10T19:45:10.007Z,4.00
2023-05-10T19:47:36.841Z,2.25
2023-05-10T19:50:04.113Z,3.30
2023-05-10T19:52:30.965Z,3.75
2023-05-10T19:54:57.689Z,2.40
2023-05-10T19:57:24.445Z,2.20
2023-05-10T19:59:51.053Z,2.50
2023-05-10T20:02:18.381Z,2.08
2023-05-10T20:04:45.138Z,2.83
2023-05-10T20:07:12.315Z,2.60
2023-05-10T20:09:38.964Z,4.60
2023-05-10T20:12:05.619Z,2.15
2023-05-10T20:14:32.299Z,2.72
2023-05-10T20:16:58.966Z,4.63
2023-05-10T20:19:26.117Z,1.98
2023-05-10T20:21:55.906Z,2.90
2023-05-10T20:24:22.658Z,3.58
2023-05-10T20:26:49.346Z,3.00
2023-05-10T20:29:16.113Z,4.37
2023-05-10T20:31:42.800Z,3.83
2023-05-10T20:34:09.477Z,3.40
2023-05-10T20:36:36.158Z,2.20
2023-05-10T20:39:03.070Z,2.03
2023-05-10T20:41:29.737Z,2.10
2023-05-10T20:43:56.420Z,2.33
2023-05-10T20:46:23.463Z,2.20
2023-05-10T20:48:50.126Z,3.88
2023-05-10T20:51:16.861Z,2.50
2023-05-10T20:53:43.503Z,2.42
2023-05-10T20:56:10.496Z,2.90
2023-05-10T20:58:37.498Z,3.78
2023-05-10T21:01:04.111Z,2.65
2023-05-10T21:03:30.765Z,5.10
2023-05-10T21:05:57.444Z,3.58
2023-05-10T21:08:24.199Z,3.58
2023-05-10T21:10:50.813Z,4.20
2023-05-10T21:13:17.549Z,3.35
2023-05-10T21:15:44.319Z,3.97
2023-05-10T21:18:11.136Z,2.40
2023-05-10T21:20:37.958Z,2.93
2023-05-10T21:23:04.683Z,2.72
2023-05-10T21:25:31.220Z,2.85
2023-05-10T21:27:58.178Z,3.63
2023-05-10T21:30:24.984Z,3.20
2023-05-10T21:32:51.687Z,2.70
2023-05-10T21:35:18.441Z,3.47
2023-05-10T21:37:45.104Z,4.00
2023-05-10T21:40:12.824Z,3.73
2023-05-10T21:42:39.532Z,3.60
2023-05-10T21:45:07.234Z,3.45
2023-05-10T21:47:34.143Z,4.93
2023-05-10T21:50:00.783Z,3.20
2023-05-10T21:52:27.451Z,2.83
2023-05-10T21:54:54.153Z,2.85
2023-05-10T21:57:21.454Z,6.38
2023-05-10T21:59:48.103Z,4.10
2023-05-10T22:02:14.851Z,4.38
2023-05-10T22:04:41.506Z,3.67
2023-05-10T22:07:08.186Z,3.30
2023-05-10T22:09:34.848Z,2.70
2023-05-10T22:12:01.575Z,3.60
2023-05-10T22:14:28.270Z,3.28
2023-05-10T22:16:55.012Z,2.88
2023-05-10T22:19:21.703Z,3.28
2023-05-10T22:21:48.403Z,5.40
2023-05-10T22:24:15.216Z,3.53
2023-05-10T22:26:41.958Z,3.33
2023-05-10T22:29:08.632Z,3.55
2023-05-10T22:31:36.025Z,3.87
2023-05-10T22:34:02.809Z,3.70
2023-05-10T22:36:30.229Z,2.97
2023-05-10T22:38:58.522Z,3.03
2023-05-10T22:41:25.234Z,3.10
2023-05-10T22:43:51.913Z,3.55
2023-05-10T22:46:18.628Z,3.97
2023-05-10T22:48:45.284Z,3.13
2023-05-10T22:51:11.988Z,2.80
2023-05-10T22:53:38.622Z,4.33
2023-05-10T22:56:06.201Z,3.13
2023-05-10T22:58:33.126Z,4.07
2023-05-10T23:00:59.847Z,3.47
2023-05-10T23:03:26.655Z,4.65
2023-05-10T23:05:53.313Z,2.80
2023-05-10T23:08:19.997Z,5.00
2023-05-10T23:10:46.928Z,4.78
2023-05-10T23:13:13.593Z,4.15
2023-05-10T23:15:40.392Z,3.22
2023-05-10T23:18:08.244Z,4.20
2023-05-10T23:20:35.463Z,3.60
2023-05-10T23:23:02.210Z,3.90
2023-05-10T23:25:29.048Z,8.93
2023-05-10T23:27:55.753Z,3.00
2023-05-10T23:30:22.428Z,3.40
2023-05-10T23:32:49.162Z,3.40
2023-05-10T23:35:16.017Z,5.53
2023-05-10T23:37:42.978Z,4.72
2023-05-10T23:40:10.366Z,3.20
2023-05-10T23:42:37.168Z,4.80
2023-05-10T23:45:04.588Z,3.30
2023-05-10T23:47:31.660Z,3.10
2023-05-10T23:49:58.627Z,3.88
2023-05-10T23:52:25.298Z,4.30
2023-05-10T23:54:52.699Z,6.43
2023-05-10T23:57:19.708Z,4.45
2023-05-10T23:59:46.512Z,4.30
